Time;durP1;ratioP1;P1;durP2;ratioP2;P2;SDS_P1;SDS_P2;PMS_P1;PMS_P2;Temp;Humidity;BMP_temperature;BMP_pressure;BME280_temperature;BME280_humidity;BME280_pressure;Samples;Min_cycle;Max_cycle;Signal;HPM_P1;HPM_P2
2023/01/14 00:01:39;;;;;;;25.03;6.03;;;7.90;1.00;;;;;;4855281;29;20889;-67
2023/01/14 00:04:06;;;;;;;27.40;6.60;;;7.80;1.00;;;;;;4863462;29;20723;-67
2023/01/14 00:06:37;;;;;;;31.17;5.93;;;7.90;1.00;;;;;;4847807;29;20292;-68
2023/01/14 00:09:06;;;;;;;19.37;5.00;;;7.90;1.00;;;;;;4856306;29;20725;-68
2023/01/14 00:11:46;;;;;;;37.30;11.73;;;7.90;1.00;;;;;;4840749;29;20222;-68
2023/01/14 00:14:21;;;;;;;25.03;6.20;;;7.90;1.00;;;;;;4865286;29;20209;-69
2023/01/14 00:16:52;;;;;;;23.10;6.87;;;7.90;1.00;;;;;;4864971;29;20249;-68
2023/01/14 00:19:20;;;;;;;36.03;10.33;;;7.90;1.00;;;;;;4864467;29;20200;-73
2023/01/14 00:21:48;;;;;;;24.37;6.37;;;7.90;1.00;;;;;;4861858;29;20206;-69
2023/01/14 00:24:18;;;;;;;32.60;9.40;;;7.90;1.00;;;;;;4865316;29;20745;-68
2023/01/14 00:26:49;;;;;;;39.50;9.93;;;8.00;1.00;;;;;;4854803;29;20200;-68
2023/01/14 00:29:22;;;;;;;26.30;5.47;;;7.90;1.00;;;;;;4862567;29;20214;-68
2023/01/14 00:31:52;;;;;;;26.13;6.27;;;8.00;1.00;;;;;;4863122;29;20222;-72
2023/01/14 00:34:19;;;;;;;29.60;4.93;;;7.90;1.00;;;;;;4832349;29;20206;-68
2023/01/14 00:36:46;;;;;;;17.23;5.13;;;8.00;1.00;;;;;;4847699;29;20385;-69
2023/01/14 00:39:14;;;;;;;17.43;4.67;;;8.00;1.00;;;;;;4856121;29;20236;-68
2023/01/14 00:41:41;;;;;;;18.93;5.37;;;7.90;1.00;;;;;;4862348;29;20206;-68
2023/01/14 00:44:08;;;;;;;21.90;4.70;;;7.90;1.00;;;;;;4867348;29;20308;-70
2023/01/14 00:46:36;;;;;;;24.30;4.60;;;7.80;1.00;;;;;;4867895;29;20580;-69
2023/01/14 00:49:06;;;;;;;24.77;4.60;;;7.70;1.00;;;;;;4866930;29;20278;-69
2023/01/14 00:51:34;;;;;;;29.87;5.47;;;7.70;1.00;;;;;;4850601;29;20230;-68
2023/01/14 00:54:02;;;;;;;29.17;5.10;;;7.70;1.00;;;;;;4866838;29;20675;-68
2023/01/14 00:56:29;;;;;;;24.30;5.00;;;7.70;1.00;;;;;;4843383;29;20202;-68
2023/01/14 00:58:57;;;;;;;25.90;4.93;;;7.70;1.00;;;;;;4866762;29;20213;-70
2023/01/14 01:01:24;;;;;;;19.93;4.70;;;7.60;1.00;;;;;;4857136;29;20206;-68
2023/01/14 01:03:54;;;;;;;23.27;5.17;;;7.50;1.00;;;;;;4858862;29;20594;-69
2023/01/14 01:06:23;;;;;;;26.23;5.63;;;7.50;1.00;;;;;;4842864;29;20341;-69
2023/01/14 01:08:56;;;;;;;20.17;5.90;;;7.50;1.00;;;;;;4866005;29;20218;-68
2023/01/14 01:11:23;;;;;;;21.00;4.37;;;7.40;1.00;;;;;;4867669;29;20670;-68
2023/01/14 01:13:51;;;;;;;28.43;4.93;;;7.40;1.00;;;;;;4868070;29;20194;-70
2023/01/14 01:16:23;;;;;;;17.67;4.97;;;7.40;1.00;;;;;;4847432;29;20729;-69
2023/01/14 01:18:52;;;;;;;24.17;4.63;;;7.40;1.00;;;;;;4849886;29;20197;-68
2023/01/14 01:21:20;;;;;;;24.90;5.20;;;7.50;1.00;;;;;;4859420;29;20331;-64
2023/01/14 01:23:50;;;;;;;21.17;4.97;;;7.60;1.00;;;;;;4865865;29;20206;-65
2023/01/14 01:26:20;;;;;;;18.90;5.07;;;7.70;1.00;;;;;;4865315;29;20261;-65
2023/01/14 01:28:49;;;;;;;19.27;5.10;;;7.90;1.00;;;;;;4867300;29;20285;-64
2023/01/14 01:31:17;;;;;;;19.50;5.77;;;8.00;1.00;;;;;;4857013;29;21212;-65
2023/01/14 01:33:44;;;;;;;18.87;5.13;;;8.00;1.00;;;;;;4867850;29;20212;-66
2023/01/14 01:36:17;;;;;;;22.10;5.93;;;8.00;1.00;;;;;;4864833;29;20244;-66
2023/01/14 01:38:46;;;;;;;16.93;4.77;;;8.00;1.00;;;;;;4881649;29;20207;-67
2023/01/14 01:41:18;;;;;;;22.37;5.00;;;8.10;1.00;;;;;;4851060;29;20301;-66
2023/01/14 01:44:19;;;;;;;26.53;6.47;;;8.10;1.00;;;;;;4865352;29;20210;-65
2023/01/14 01:46:47;;;;;;;25.07;6.53;;;8.00;1.00;;;;;;4829127;29;20224;-65
2023/01/14 01:49:20;;;;;;;28.90;5.00;;;8.00;1.00;;;;;;4880637;29;20661;-65
2023/01/14 01:52:08;;;;;;;19.53;4.93;;;7.90;1.00;;;;;;4865981;29;20229;-66
2023/01/14 01:54:47;;;;;;;22.57;5.00;;;7.80;1.00;;;;;;4866807;29;20213;-66
2023/01/14 01:57:16;;;;;;;20.87;5.57;;;7.80;1.00;;;;;;4866317;29;20249;-66
2023/01/14 01:59:48;;;;;;;26.60;5.43;;;7.80;1.00;;;;;;4864606;29;20250;-66
2023/01/14 02:02:16;;;;;;;19.70;4.90;;;7.80;1.00;;;;;;4850050;29;20781;-67
2023/01/14 02:04:43;;;;;;;22.97;5.97;;;7.90;1.00;;;;;;4848474;29;20263;-65
2023/01/14 02:07:20;;;;;;;26.83;7.20;;;7.90;1.00;;;;;;4865101;29;20429;-66
2023/01/14 02:09:50;;;;;;;28.53;7.20;;;7.90;1.00;;;;;;4849990;29;20271;-64
2023/01/14 02:12:50;;;;;;;23.97;6.00;;;7.90;1.00;;;;;;4866309;29;20213;-63
2023/01/14 02:15:23;;;;;;;21.03;5.70;;;7.90;1.00;;;;;;4863139;29;20233;-65
2023/01/14 02:18:10;;;;;;;32.10;5.77;;;7.90;1.00;;;;;;4864924;29;20221;-64
2023/01/14 02:20:40;;;;;;;21.47;5.77;;;7.90;1.00;;;;;;4856025;29;20206;-65
2023/01/14 02:23:22;;;;;;;22.97;6.53;;;7.90;1.00;;;;;;4863629;29;20204;-64
2023/01/14 02:26:08;;;;;;;28.73;6.37;;;7.90;1.00;;;;;;4862812;29;20700;-65
2023/01/14 02:29:14;;;;;;;21.60;6.50;;;7.90;1.00;;;;;;4865845;29;20678;-63
2023/01/14 02:32:00;;;;;;;29.20;6.67;;;7.90;1.00;;;;;;4842132;29;20316;-63
2023/01/14 02:34:44;;;;;;;19.50;6.43;;;7.80;1.00;;;;;;4862507;29;20214;-65
2023/01/14 02:37:21;;;;;;;28.33;7.80;;;7.80;1.00;;;;;;4849223;29;20297;-64
2023/01/14 02:40:08;;;;;;;31.60;12.33;;;7.80;1.00;;;;;;4864506;29;20748;-64
2023/01/14 02:45:47;;;;;;;24.73;6.93;;;7.80;1.00;;;;;;4865184;29;20243;-65
2023/01/14 02:48:17;;;;;;;24.00;6.37;;;7.80;1.00;;;;;;4863788;29;20301;-64
2023/01/14 02:50:45;;;;;;;30.57;8.57;;;7.80;1.00;;;;;;4851008;29;20697;-65
2023/01/14 02:53:16;;;;;;;28.13;6.10;;;7.80;1.00;;;;;;4866509;29;20233;-63
2023/01/14 02:55:43;;;;;;;31.20;7.23;;;7.80;1.00;;;;;;4857211;29;20218;-64
2023/01/14 02:58:26;;;;;;;36.23;5.53;;;7.80;1.00;;;;;;4849842;29;20736;-64
2023/01/14 03:01:15;;;;;;;31.70;5.93;;;7.70;1.00;;;;;;4865753;29;20232;-65
2023/01/14 03:04:10;;;;;;;25.73;5.43;;;7.70;1.00;;;;;;4864179;29;20242;-64
2023/01/14 03:07:15;;;;;;;25.27;5.27;;;7.70;1.00;;;;;;4842616;29;20227;-65
2023/01/14 03:10:00;;;;;;;30.73;7.83;;;7.60;1.00;;;;;;4820727;29;20219;-64
2023/01/14 03:13:02;;;;;;;24.67;5.80;;;7.50;1.00;;;;;;4842757;29;20318;-64
2023/01/14 03:15:33;;;;;;;24.97;5.60;;;7.60;1.00;;;;;;4813177;29;20202;-66
2023/01/14 03:18:10;;;;;;;44.63;6.03;;;7.50;1.00;;;;;;4843745;29;20305;-65
2023/01/14 03:20:43;;;;;;;24.20;5.03;;;7.50;1.00;;;;;;4834972;29;20294;-65
2023/01/14 03:23:15;;;;;;;27.53;5.77;;;7.30;1.00;;;;;;4828244;29;20222;-64
2023/01/14 03:25:46;;;;;;;31.87;5.80;;;7.20;1.00;;;;;;4842563;29;20308;-66
2023/01/14 03:28:24;;;;;;;26.13;5.23;;;7.10;1.00;;;;;;4827891;29;20584;-68
2023/01/14 03:30:57;;;;;;;35.27;6.10;;;7.00;1.00;;;;;;4842837;29;20230;-65
2023/01/14 03:33:30;;;;;;;24.60;5.07;;;6.90;1.00;;;;;;4828702;29;20578;-65
2023/01/14 03:35:58;;;;;;;25.77;5.17;;;7.00;1.00;;;;;;4828245;29;20301;-66
2023/01/14 03:38:38;;;;;;;24.27;5.40;;;6.90;1.00;;;;;;4829155;29;20609;-64
2023/01/14 03:41:08;;;;;;;26.13;4.77;;;6.80;1.00;;;;;;4829310;29;20383;-64
2023/01/14 03:43:46;;;;;;;30.43;5.80;;;6.70;1.00;;;;;;4828544;29;20225;-65
2023/01/14 03:46:14;;;;;;;27.63;5.07;;;6.80;1.00;;;;;;4828340;29;20278;-64
2023/01/14 03:48:41;;;;;;;19.77;5.10;;;6.80;1.00;;;;;;4830294;29;20226;-68
2023/01/14 03:51:41;;;;;;;30.57;5.00;;;6.80;1.00;;;;;;4842325;29;20216;-64
2023/01/14 03:54:09;;;;;;;20.87;4.97;;;6.80;1.00;;;;;;4827783;29;20223;-63
2023/01/14 03:56:59;;;;;;;27.70;4.97;;;6.80;1.00;;;;;;4827927;29;20668;-65
2023/01/14 03:59:45;;;;;;;21.97;5.27;;;6.60;1.00;;;;;;4830405;29;20195;-66
2023/01/14 04:02:14;;;;;;;28.60;5.43;;;6.70;1.00;;;;;;4830615;29;20203;-65
2023/01/14 04:04:44;;;;;;;20.50;5.30;;;6.70;1.00;;;;;;4841081;29;20232;-64
2023/01/14 04:07:11;;;;;;;27.70;5.33;;;6.60;1.00;;;;;;4848410;29;20651;-66
2023/01/14 04:09:38;;;;;;;26.63;4.53;;;6.60;1.00;;;;;;4865602;29;20695;-66
2023/01/14 04:12:06;;;;;;;27.70;5.23;;;6.60;1.00;;;;;;4848051;29;20237;-69
2023/01/14 04:17:18;;;;;;;30.93;7.37;;;6.60;1.00;;;;;;4850003;29;20198;-67
2023/01/14 04:19:45;;;;;;;30.83;6.67;;;6.60;1.00;;;;;;4859204;29;20202;-68
2023/01/14 04:22:12;;;;;;;25.50;6.83;;;6.50;1.00;;;;;;4868268;29;20257;-70
2023/01/14 04:24:39;;;;;;;26.67;5.33;;;6.50;1.00;;;;;;4867854;29;20226;-66
2023/01/14 04:27:06;;;;;;;34.00;6.73;;;6.50;1.00;;;;;;4867569;29;20217;-65
2023/01/14 04:29:33;;;;;;;29.40;5.13;;;6.50;1.00;;;;;;4870766;29;20202;-66
2023/01/14 04:32:00;;;;;;;38.70;7.53;;;6.40;1.00;;;;;;4869630;29;20245;-66
2023/01/14 04:34:27;;;;;;;28.00;5.37;;;6.40;1.00;;;;;;4866178;29;20310;-65
2023/01/14 04:36:54;;;;;;;31.67;5.97;;;6.40;1.00;;;;;;4868013;29;20229;-66
2023/01/14 04:39:21;;;;;;;22.77;5.77;;;6.40;1.00;;;;;;4868718;29;20221;-67
2023/01/14 04:44:33;;;;;;;21.20;4.83;;;6.50;1.00;;;;;;4866366;29;20707;-66
2023/01/14 04:47:00;;;;;;;26.90;6.30;;;6.50;1.00;;;;;;4870149;29;20201;-66
2023/01/14 04:49:27;;;;;;;30.40;5.27;;;6.50;1.00;;;;;;4851662;29;20733;-66
2023/01/14 04:51:54;;;;;;;24.37;5.70;;;6.50;1.00;;;;;;4867172;29;20290;-67
2023/01/14 04:54:21;;;;;;;19.93;4.83;;;6.40;1.00;;;;;;4869390;29;20268;-67
2023/01/14 04:56:48;;;;;;;19.47;4.30;;;6.40;1.00;;;;;;4867750;29;20268;-67
2023/01/14 04:59:15;;;;;;;29.07;5.10;;;6.50;1.00;;;;;;4868368;29;20206;-67
2023/01/14 05:01:43;;;;;;;25.47;4.33;;;6.50;1.00;;;;;;4865788;29;20210;-67
2023/01/14 05:04:10;;;;;;;20.10;3.77;;;6.50;1.00;;;;;;4863604;29;20278;-67
2023/01/14 05:06:37;;;;;;;22.63;4.53;;;6.40;1.00;;;;;;4866536;29;20251;-67
2023/01/14 05:09:04;;;;;;;29.30;5.20;;;6.40;1.00;;;;;;4867744;29;20207;-67
2023/01/14 05:11:31;;;;;;;25.40;5.77;;;6.40;1.00;;;;;;4868378;29;20282;-67
2023/01/14 05:13:58;;;;;;;23.53;5.10;;;6.40;1.00;;;;;;4868217;29;20194;-67
2023/01/14 05:16:26;;;;;;;22.07;4.27;;;6.40;1.00;;;;;;4851994;29;20771;-66
2023/01/14 05:18:54;;;;;;;28.40;4.80;;;6.30;1.00;;;;;;4870022;29;20190;-66
2023/01/14 05:21:21;;;;;;;27.93;4.10;;;6.30;1.00;;;;;;4856570;29;20286;-66
2023/01/14 05:23:48;;;;;;;19.80;4.40;;;6.40;1.00;;;;;;4868020;29;20229;-66
2023/01/14 05:26:15;;;;;;;21.30;4.33;;;6.30;1.00;;;;;;4865244;29;20202;-66
2023/01/14 05:28:42;;;;;;;25.07;4.60;;;6.30;1.00;;;;;;4851265;29;20190;-66
2023/01/14 05:31:09;;;;;;;20.80;4.47;;;6.30;1.00;;;;;;4852483;29;20198;-67
2023/01/14 05:33:36;;;;;;;24.47;4.70;;;6.30;1.00;;;;;;4865027;29;20346;-68
2023/01/14 05:36:05;;;;;;;25.10;5.17;;;6.30;1.00;;;;;;4856857;29;20211;-67
2023/01/14 05:38:32;;;;;;;26.97;4.33;;;6.40;1.00;;;;;;4866689;29;20198;-67
2023/01/14 05:40:59;;;;;;;17.73;4.20;;;6.50;1.00;;;;;;4867561;29;20326;-67
2023/01/14 05:46:17;;;;;;;23.43;5.10;;;6.50;1.00;;;;;;4865992;29;20301;-67
2023/01/14 05:48:44;;;;;;;31.67;5.47;;;6.50;1.00;;;;;;4866709;29;20685;-67
2023/01/14 05:51:12;;;;;;;23.70;5.00;;;6.50;1.00;;;;;;4867040;29;20214;-66
2023/01/14 05:53:40;;;;;;;22.73;4.93;;;6.60;1.00;;;;;;4865176;29;20483;-67
2023/01/14 05:56:07;;;;;;;36.20;4.73;;;6.50;1.00;;;;;;4865710;29;20248;-67
2023/01/14 05:58:34;;;;;;;31.70;6.27;;;6.50;1.00;;;;;;4833848;29;20305;-67
2023/01/14 06:06:50;;;;;;;17.80;3.87;;;6.60;1.00;;;;;;4865480;29;20277;-67
2023/01/14 06:09:19;;;;;;;20.83;4.00;;;6.60;1.00;;;;;;4866498;29;20245;-73
2023/01/14 06:12:08;;;;;;;33.00;5.83;;;6.60;1.00;;;;;;4867398;29;20697;-69
2023/01/14 06:14:34;;;;;;;19.43;5.03;;;6.60;1.00;;;;;;4867712;29;20550;-68
2023/01/14 06:17:08;;;;;;;20.70;4.03;;;6.50;1.00;;;;;;4864448;29;20254;-69
2023/01/14 06:19:35;;;;;;;22.77;4.23;;;6.50;1.00;;;;;;4867096;29;20634;-67
2023/01/14 06:22:02;;;;;;;20.33;4.83;;;6.50;1.00;;;;;;4868883;29;20202;-68
2023/01/14 06:24:29;;;;;;;21.33;4.40;;;6.50;1.00;;;;;;4865792;29;20269;-68
2023/01/14 06:27:04;;;;;;;22.17;4.70;;;6.50;1.00;;;;;;4864683;29;20205;-68
2023/01/14 06:29:31;;;;;;;16.77;4.00;;;6.50;1.00;;;;;;4867376;29;20197;-70
2023/01/14 06:31:58;;;;;;;25.10;3.87;;;6.50;1.00;;;;;;4847777;29;20238;-72
2023/01/14 06:34:26;;;;;;;27.13;4.80;;;6.50;1.00;;;;;;4867995;29;20284;-68
2023/01/14 06:36:53;;;;;;;18.57;3.77;;;6.60;1.00;;;;;;4849706;29;20258;-69
2023/01/14 06:39:20;;;;;;;23.67;4.13;;;6.70;1.00;;;;;;4856429;29;20201;-68
2023/01/14 06:41:47;;;;;;;21.00;4.10;;;6.60;1.00;;;;;;4865838;29;20715;-68
2023/01/14 06:44:14;;;;;;;16.43;3.47;;;6.60;1.00;;;;;;4834529;29;20695;-68
2023/01/14 06:46:41;;;;;;;16.73;4.23;;;6.60;1.00;;;;;;4865273;29;20229;-67
2023/01/14 06:49:08;;;;;;;15.43;3.17;;;6.60;1.00;;;;;;4864317;29;20198;-65
2023/01/14 06:51:35;;;;;;;20.60;3.60;;;6.70;1.00;;;;;;4867226;29;20742;-65
2023/01/14 06:54:02;;;;;;;23.03;4.40;;;6.70;1.00;;;;;;4865862;29;20685;-66
2023/01/14 06:56:29;;;;;;;17.63;3.90;;;6.70;1.00;;;;;;4864453;29;20266;-66
2023/01/14 06:58:56;;;;;;;15.57;3.50;;;6.70;1.00;;;;;;4864776;29;20309;-65
2023/01/14 07:01:23;;;;;;;21.40;3.83;;;6.80;1.00;;;;;;4865634;29;20201;-65
2023/01/14 07:03:51;;;;;;;14.67;3.30;;;6.70;1.00;;;;;;4864965;29;20272;-65
2023/01/14 07:06:18;;;;;;;17.97;3.50;;;6.80;1.00;;;;;;4865557;29;20645;-65
2023/01/14 07:08:46;;;;;;;17.03;3.70;;;6.70;1.00;;;;;;4867145;29;20209;-66
2023/01/14 07:11:13;;;;;;;15.37;3.63;;;6.80;1.00;;;;;;4848009;29;20292;-65
2023/01/14 07:13:40;;;;;;;18.23;2.83;;;6.70;1.00;;;;;;4855777;29;20694;-65
2023/01/14 07:16:07;;;;;;;19.07;3.60;;;6.70;1.00;;;;;;4863531;29;20229;-65
2023/01/14 07:18:34;;;;;;;14.13;3.07;;;6.80;1.00;;;;;;4856790;29;20194;-65
2023/01/14 07:21:01;;;;;;;21.40;3.27;;;6.70;1.00;;;;;;4867052;29;20759;-66
2023/01/14 07:23:28;;;;;;;11.77;3.13;;;6.80;1.00;;;;;;4867369;29;20743;-67
2023/01/14 07:25:56;;;;;;;22.27;3.97;;;6.80;1.00;;;;;;4866246;29;20221;-67
2023/01/14 07:28:27;;;;;;;17.40;3.30;;;6.80;1.00;;;;;;4866268;29;20541;-66
2023/01/14 07:30:55;;;;;;;14.33;2.73;;;6.90;1.00;;;;;;4866375;29;20937;-67
2023/01/14 07:33:22;;;;;;;22.27;3.87;;;6.80;1.00;;;;;;4866660;29;20279;-68
2023/01/14 07:35:51;;;;;;;17.63;4.00;;;6.90;1.00;;;;;;4864547;29;20216;-65
2023/01/14 07:38:20;;;;;;;14.43;3.53;;;6.90;1.00;;;;;;4864875;29;20205;-66
2023/01/14 07:40:48;;;;;;;12.40;3.80;;;6.90;1.00;;;;;;4864697;29;20201;-67
2023/01/14 07:43:15;;;;;;;20.23;5.00;;;6.90;1.00;;;;;;4866086;29;20552;-67
2023/01/14 07:45:43;;;;;;;19.97;7.07;;;7.00;1.00;;;;;;4864956;29;20202;-66
2023/01/14 07:48:10;;;;;;;13.73;3.73;;;7.00;1.00;;;;;;4865401;29;20321;-68
2023/01/14 07:50:37;;;;;;;14.47;3.40;;;7.00;1.00;;;;;;4868312;29;20208;-66
2023/01/14 07:53:04;;;;;;;13.00;3.40;;;7.00;1.00;;;;;;4871022;29;20217;-73
2023/01/14 07:55:35;;;;;;;11.93;3.63;;;7.10;1.00;;;;;;4869520;29;20214;-68
2023/01/14 07:58:02;;;;;;;18.53;3.10;;;7.00;1.00;;;;;;4870506;29;20627;-66
2023/01/14 08:00:29;;;;;;;28.60;11.00;;;7.10;1.00;;;;;;4870842;29;20209;-65
2023/01/14 08:02:56;;;;;;;17.97;5.03;;;7.10;1.00;;;;;;4870294;29;20206;-67
2023/01/14 08:05:23;;;;;;;16.90;5.03;;;7.20;1.00;;;;;;4870365;29;20270;-68
2023/01/14 08:07:50;;;;;;;12.50;2.90;;;7.20;1.00;;;;;;4867518;29;20900;-68
2023/01/14 08:10:17;;;;;;;14.47;3.83;;;7.20;1.00;;;;;;4869553;29;20241;-67
2023/01/14 08:12:44;;;;;;;9.93;2.97;;;7.20;1.00;;;;;;4868159;29;20687;-67
2023/01/14 08:15:12;;;;;;;11.07;2.90;;;7.20;1.00;;;;;;4870756;29;20194;-67
2023/01/14 08:17:39;;;;;;;20.23;3.77;;;7.20;1.00;;;;;;4866631;29;20215;-68
2023/01/14 08:20:08;;;;;;;13.00;3.67;;;7.20;1.00;;;;;;4869894;29;20198;-68
2023/01/14 08:22:35;;;;;;;12.70;4.43;;;7.20;1.00;;;;;;4860428;29;20682;-70
2023/01/14 08:25:03;;;;;;;13.93;2.77;;;7.20;1.00;;;;;;4869163;29;20288;-69
2023/01/14 08:27:32;;;;;;;9.27;3.10;;;7.20;1.00;;;;;;4870807;29;20659;-65
2023/01/14 08:29:59;;;;;;;15.23;3.80;;;7.10;1.00;;;;;;4867894;29;22279;-68
2023/01/14 08:32:26;;;;;;;11.67;3.47;;;7.20;1.00;;;;;;4850190;29;20206;-67
2023/01/14 08:34:53;;;;;;;9.47;2.80;;;7.10;1.00;;;;;;4868560;29;20205;-68
2023/01/14 08:37:20;;;;;;;9.10;3.00;;;7.10;1.00;;;;;;4859804;29;20279;-66
2023/01/14 08:39:50;;;;;;;11.83;2.63;;;7.20;1.00;;;;;;4865984;29;20206;-64
2023/01/14 08:42:17;;;;;;;9.47;3.00;;;7.10;1.00;;;;;;4867128;29;20200;-67
2023/01/14 08:44:44;;;;;;;10.90;3.57;;;7.10;1.00;;;;;;4852557;29;20304;-67
2023/01/14 08:47:11;;;;;;;14.27;2.93;;;7.10;1.00;;;;;;4852841;29;20202;-66
2023/01/14 08:49:38;;;;;;;7.57;2.40;;;7.00;1.00;;;;;;4868365;29;20209;-67
2023/01/14 08:52:05;;;;;;;16.27;3.17;;;7.00;1.00;;;;;;4855179;29;20200;-67
2023/01/14 08:54:33;;;;;;;10.80;2.40;;;6.90;1.00;;;;;;4851902;29;20226;-67
2023/01/14 08:57:00;;;;;;;12.23;3.37;;;6.90;1.00;;;;;;4869210;29;20265;-67
2023/01/14 08:59:27;;;;;;;11.80;2.50;;;6.90;1.00;;;;;;4867832;29;20286;-66
2023/01/14 09:01:54;;;;;;;9.90;3.20;;;6.90;1.00;;;;;;4869766;29;20225;-66
2023/01/14 09:04:24;;;;;;;11.57;2.73;;;7.00;1.00;;;;;;4852763;29;20246;-66
2023/01/14 09:17:58;;;;;;;10.07;3.17;;;7.10;1.00;;;;;;4867937;29;20276;-66
2023/01/14 09:20:30;;;;;;;9.27;2.73;;;7.00;1.00;;;;;;4858108;29;20440;-66
2023/01/14 09:22:59;;;;;;;14.57;2.83;;;7.10;1.00;;;;;;4867707;29;20198;-71
2023/01/14 09:25:26;;;;;;;13.30;2.63;;;7.00;1.00;;;;;;4867199;29;20241;-66
2023/01/14 09:27:53;;;;;;;9.60;2.70;;;7.00;1.00;;;;;;4842011;29;20206;-66
2023/01/14 09:30:21;;;;;;;6.30;2.27;;;7.10;1.00;;;;;;4853823;29;20240;-66
2023/01/14 09:32:48;;;;;;;9.70;2.43;;;7.10;1.00;;;;;;4852880;29;20250;-66
2023/01/14 09:35:15;;;;;;;9.17;2.40;;;7.30;1.00;;;;;;4852363;29;20244;-69
2023/01/14 09:37:42;;;;;;;8.93;2.37;;;7.20;1.00;;;;;;4869034;29;20225;-66
2023/01/14 09:40:10;;;;;;;9.50;2.47;;;7.30;1.00;;;;;;4871420;29;20205;-66
2023/01/14 09:42:45;;;;;;;20.93;10.70;;;7.30;1.00;;;;;;4865721;29;20662;-67
2023/01/14 09:45:36;;;;;;;14.60;7.40;;;7.40;1.00;;;;;;4856747;29;20292;-71
2023/01/14 09:48:11;;;;;;;10.03;2.63;;;7.50;1.00;;;;;;4868544;29;20218;-66
2023/01/14 09:50:41;;;;;;;7.37;3.07;;;7.50;1.00;;;;;;4859121;29;20225;-66
2023/01/14 09:53:27;;;;;;;8.13;2.87;;;7.50;1.00;;;;;;4864617;29;20259;-66
2023/01/14 09:56:04;;;;;;;10.80;2.23;;;7.60;1.00;;;;;;4868028;29;20198;-67
2023/01/14 09:58:38;;;;;;;6.43;2.40;;;7.80;1.00;;;;;;4867540;29;20190;-67
2023/01/14 10:01:20;;;;;;;8.00;2.50;;;7.70;1.00;;;;;;4857406;29;20206;-66
2023/01/14 10:04:15;;;;;;;9.10;2.80;;;7.80;1.00;;;;;;4868194;29;20233;-65
2023/01/14 10:06:43;;;;;;;7.93;2.23;;;8.00;1.00;;;;;;4866874;29;20197;-66
2023/01/14 10:09:16;;;;;;;10.83;2.30;;;8.00;1.00;;;;;;4868335;29;20225;-66
2023/01/14 10:11:45;;;;;;;9.67;2.57;;;8.00;1.00;;;;;;4867470;29;20235;-66
2023/01/14 10:14:17;;;;;;;7.50;2.07;;;8.10;1.00;;;;;;4867960;29;20249;-66
2023/01/14 10:16:52;;;;;;;9.43;2.17;;;8.10;1.00;;;;;;4867735;29;20641;-67
2023/01/14 10:19:27;;;;;;;8.40;2.40;;;8.10;1.00;;;;;;4867632;29;20268;-68
2023/01/14 10:22:07;;;;;;;4.63;1.77;;;8.20;1.00;;;;;;4867498;29;20201;-66
2023/01/14 10:24:42;;;;;;;6.93;2.60;;;8.30;1.00;;;;;;4858292;29;20247;-67
2023/01/14 10:27:15;;;;;;;8.70;2.40;;;8.20;1.00;;;;;;4866425;29;20648;-67
2023/01/14 10:29:43;;;;;;;7.43;2.43;;;8.30;1.00;;;;;;4868892;29;20198;-68
2023/01/14 10:32:13;;;;;;;6.47;2.20;;;8.40;1.00;;;;;;4866081;29;20202;-67
2023/01/14 10:34:43;;;;;;;6.43;2.10;;;8.40;1.00;;;;;;4851482;29;20212;-67
2023/01/14 10:37:11;;;;;;;6.03;2.40;;;8.40;1.00;;;;;;4851469;29;20237;-66
2023/01/14 10:39:46;;;;;;;12.10;4.17;;;8.40;1.00;;;;;;4865862;29;20306;-70
2023/01/14 10:42:15;;;;;;;9.70;2.70;;;8.50;1.00;;;;;;4867348;29;20201;-67
2023/01/14 10:44:43;;;;;;;5.50;1.90;;;8.50;1.00;;;;;;4857775;29;20229;-67
2023/01/14 10:47:16;;;;;;;9.17;2.30;;;8.60;1.00;;;;;;4865486;29;20565;-66
2023/01/14 10:49:51;;;;;;;5.17;2.63;;;8.50;1.00;;;;;;4865467;29;20570;-67
2023/01/14 10:52:26;;;;;;;3.03;1.67;;;8.60;1.00;;;;;;4864790;29;20198;-67
2023/01/14 10:55:07;;;;;;;5.40;1.80;;;8.60;1.00;;;;;;4859144;29;20904;-67
2023/01/14 10:57:55;;;;;;;7.17;1.90;;;8.70;1.00;;;;;;4866079;29;20820;-67
2023/01/14 11:00:30;;;;;;;5.70;1.93;;;8.50;1.00;;;;;;4865677;29;20905;-67
2023/01/14 11:02:59;;;;;;;5.93;2.00;;;8.40;1.00;;;;;;4864298;29;20206;-67
2023/01/14 11:06:12;;;;;;;5.33;2.33;;;8.40;1.00;;;;;;4867146;29;20732;-67
2023/01/14 11:08:47;;;;;;;7.73;1.97;;;8.30;1.00;;;;;;4855698;29;20210;-67
2023/01/14 11:11:20;;;;;;;7.10;2.37;;;8.20;1.00;;;;;;4853335;29;20205;-68
2023/01/14 11:13:50;;;;;;;14.63;5.17;;;8.20;1.00;;;;;;4867365;29;20228;-68
2023/01/14 11:16:29;;;;;;;7.47;2.00;;;8.20;1.00;;;;;;4880318;29;20214;-68
2023/01/14 11:19:21;;;;;;;14.27;6.10;;;8.10;1.00;;;;;;4851589;29;20632;-69
2023/01/14 11:21:53;;;;;;;8.07;2.17;;;8.00;1.00;;;;;;4863741;29;20198;-68
2023/01/14 11:24:26;;;;;;;7.33;2.10;;;8.00;1.00;;;;;;4847966;29;20622;-68
2023/01/14 11:27:07;;;;;;;8.83;2.10;;;8.00;1.00;;;;;;4864226;29;20292;-68
2023/01/14 11:29:37;;;;;;;6.80;1.80;;;8.00;99.90;;;;;;4864228;29;20211;-68
2023/01/14 11:32:14;;;;;;;7.93;1.80;;;7.90;1.00;;;;;;4853781;29;20197;-68
2023/01/14 11:34:54;;;;;;;6.63;2.00;;;7.90;1.00;;;;;;4849343;29;20265;-67
2023/01/14 11:37:35;;;;;;;5.57;1.90;;;7.80;1.00;;;;;;4848330;29;20206;-68
2023/01/14 11:40:03;;;;;;;3.07;1.33;;;7.90;99.90;;;;;;4865301;29;20197;-68
2023/01/14 11:42:38;;;;;;;8.97;2.10;;;7.80;1.00;;;;;;4862248;29;20660;-68
2023/01/14 11:45:16;;;;;;;6.77;1.63;;;7.90;1.00;;;;;;4832856;29;20302;-68
2023/01/14 11:47:55;;;;;;;4.30;1.60;;;8.00;1.00;;;;;;4863371;29;20570;-68
2023/01/14 11:50:22;;;;;;;5.17;1.80;;;7.90;1.00;;;;;;4867041;29;20273;-68
2023/01/14 11:53:16;;;;;;;3.43;1.10;;;8.00;1.00;;;;;;4864654;29;20201;-69
2023/01/14 11:55:47;;;;;;;5.87;1.87;;;8.30;99.90;;;;;;4867536;29;20199;-68
2023/01/14 11:58:19;;;;;;;3.10;1.60;;;8.30;1.00;;;;;;4865895;29;20368;-67
2023/01/14 12:00:49;;;;;;;7.03;1.70;;;8.20;99.90;;;;;;4864305;29;20686;-67
2023/01/14 12:03:48;;;;;;;5.73;1.90;;;8.10;99.90;;;;;;4866462;29;20249;-67
2023/01/14 12:06:23;;;;;;;4.43;1.60;;;8.10;1.00;;;;;;4863400;29;20321;-67
2023/01/14 12:08:54;;;;;;;2.63;1.30;;;8.10;99.90;;;;;;4866611;29;20193;-72
2023/01/14 12:11:45;;;;;;;0.43;0.43;;;8.10;99.90;;;;;;4864523;29;20292;-68
2023/01/14 12:17:12;;;;;;;4.13;1.50;;;8.20;99.90;;;;;;4863880;29;20199;-67
2023/01/14 12:20:08;;;;;;;5.50;1.40;;;8.20;99.90;;;;;;4856756;29;20357;-66
2023/01/14 12:23:00;;;;;;;4.10;1.27;;;8.10;99.90;;;;;;4845341;29;20206;-66
2023/01/14 12:25:32;;;;;;;3.40;1.33;;;8.10;1.00;;;;;;4863495;29;20226;-66
2023/01/14 12:28:09;;;;;;;9.97;5.87;;;8.00;99.90;;;;;;4864991;29;20326;-66
2023/01/14 12:30:41;;;;;;;2.03;1.03;;;8.00;99.90;;;;;;4831272;29;20202;-66
2023/01/14 12:33:08;;;;;;;3.10;1.83;;;8.00;1.00;;;;;;4863996;29;20625;-66
2023/01/14 12:35:48;;;;;;;7.27;2.63;;;8.00;1.00;;;;;;4850276;29;20292;-66
2023/01/14 12:47:27;;;;;;;3.13;1.43;;;8.10;1.00;;;;;;4867568;29;20288;-68
2023/01/14 12:49:54;;;;;;;2.40;2.10;;;8.30;99.90;;;;;;4869689;29;20297;-67
2023/01/14 12:52:32;;;;;;;2.10;1.33;;;8.40;99.90;;;;;;4858403;29;20209;-67
2023/01/14 12:55:00;;;;;;;0.40;0.40;;;8.50;1.00;;;;;;4869926;29;20850;-66
2023/01/14 12:57:28;;;;;;;0.40;0.40;;;8.50;1.00;;;;;;4852239;29;20226;-66
2023/01/14 13:00:02;;;;;;;0.40;0.40;;;8.50;1.00;;;;;;4869018;29;20553;-67
2023/01/14 13:02:32;;;;;;;0.40;0.40;;;8.50;1.00;;;;;;4856555;29;20212;-68
2023/01/14 13:05:12;;;;;;;0.40;0.40;;;8.70;1.00;;;;;;4865717;29;20246;-66
2023/01/14 13:07:49;;;;;;;0.40;0.40;;;8.90;1.00;;;;;;4854369;29;20675;-66
2023/01/14 13:10:43;;;;;;;0.40;0.40;;;8.90;99.90;;;;;;4866495;29;20335;-66
2023/01/14 13:13:24;;;;;;;0.40;0.40;;;9.00;1.00;;;;;;4866516;29;20741;-66
2023/01/14 13:15:51;;;;;;;0.40;0.40;;;9.20;1.00;;;;;;4868915;29;20197;-71
2023/01/14 13:18:36;;;;;;;0.40;0.40;;;9.00;1.00;;;;;;4853665;29;20225;-66
2023/01/14 13:21:07;;;;;;;0.40;0.40;;;9.10;99.90;;;;;;4866364;29;20663;-66
2023/01/14 13:23:37;;;;;;;0.40;0.40;;;9.00;99.90;;;;;;4866903;29;20618;-67
2023/01/14 13:26:30;;;;;;;0.40;0.40;;;9.00;34.40;;;;;;4846862;29;20205;-66
2023/01/14 13:29:14;;;;;;;0.50;0.50;;;9.10;42.40;;;;;;4835167;29;20717;-66
2023/01/14 13:31:43;;;;;;;0.43;0.43;;;9.20;1.00;;;;;;4865411;29;20205;-66
2023/01/14 13:34:23;;;;;;;0.40;0.40;;;9.20;99.90;;;;;;4859632;29;20317;-66
2023/01/14 13:37:02;;;;;;;0.40;0.40;;;9.10;99.90;;;;;;4850878;29;20289;-66
2023/01/14 13:39:31;;;;;;;0.40;0.40;;;9.20;39.00;;;;;;4851960;29;20682;-66
2023/01/14 13:42:02;;;;;;;0.40;0.40;;;9.20;1.00;;;;;;4867073;29;20214;-66
2023/01/14 13:44:37;;;;;;;0.40;0.40;;;9.30;1.00;;;;;;4856582;29;20210;-66
2023/01/14 13:47:19;;;;;;;0.40;0.40;;;9.30;1.00;;;;;;4865807;29;20204;-67
2023/01/14 13:50:01;;;;;;;0.40;0.40;;;9.30;1.00;;;;;;4834946;29;20595;-72
2023/01/14 13:52:33;;;;;;;2.17;1.30;;;9.30;1.00;;;;;;4850831;29;20209;-67
2023/01/14 13:55:17;;;;;;;2.70;1.40;;;9.30;1.00;;;;;;4857297;29;20257;-67
2023/01/14 13:57:51;;;;;;;2.03;1.67;;;9.20;1.00;;;;;;4856575;29;20225;-67
2023/01/14 14:00:24;;;;;;;1.87;1.60;;;9.20;1.00;;;;;;4849044;29;20225;-67
2023/01/14 14:03:16;;;;;;;1.13;1.00;;;9.20;99.90;;;;;;4851911;29;20210;-67
2023/01/14 14:05:44;;;;;;;2.20;1.20;;;9.20;99.90;;;;;;4867293;29;20269;-65
2023/01/14 14:08:11;;;;;;;2.33;1.10;;;9.10;99.90;;;;;;4850034;29;20587;-67